createdAt,value
2019-06-26T00:03:20.665Z,22.7
2019-06-26T00:08:25.601Z,22.7
2019-06-26T00:13:30.820Z,22.6
2019-06-26T00:18:36.340Z,22.6
2019-06-26T00:23:41.091Z,22.6
2019-06-26T00:28:45.983Z,22.5
2019-06-26T00:33:50.834Z,22.4
2019-06-26T00:38:58.551Z,22.4
2019-06-26T00:44:03.416Z,22.3
2019-06-26T00:49:06.904Z,22.4
2019-06-26T00:54:11.891Z,22.3
2019-06-26T00:59:16.929Z,22.3
2019-06-26T01:04:22.489Z,22.3
2019-06-26T01:09:27.563Z,22.3
2019-06-26T01:14:32.550Z,22.2
2019-06-26T01:19:37.405Z,22.3
2019-06-26T01:24:42.359Z,22.2
2019-06-26T01:29:47.340Z,22.2
2019-06-26T01:34:52.286Z,22.2
2019-06-26T01:39:57.211Z,22.1
2019-06-26T01:45:02.178Z,22
2019-06-26T01:50:07.329Z,22
2019-06-26T01:55:12.387Z,21.9
2019-06-26T02:00:17.458Z,21.9
2019-06-26T02:05:22.454Z,21.9
2019-06-26T02:15:32.745Z,21.8
2019-06-26T02:20:37.787Z,21.8
2019-06-26T02:25:42.549Z,21.7
2019-06-26T02:30:47.428Z,21.7
2019-06-26T02:37:04.340Z,21.6
2019-06-26T02:42:09.309Z,21.6
2019-06-26T02:47:22.028Z,21.6
2019-06-26T02:52:17.106Z,21.6
2019-06-26T02:57:22.055Z,21.6
2019-06-26T03:02:26.943Z,21.5
2019-06-26T03:07:31.809Z,21.5
2019-06-26T03:12:36.798Z,21.5
2019-06-26T03:17:57.021Z,21.6
2019-06-26T03:22:42.198Z,21.6
2019-06-26T03:27:47.303Z,21.7
2019-06-26T03:32:52.156Z,21.8
2019-06-26T03:37:57.396Z,22.1
2019-06-26T03:43:02.443Z,22
2019-06-26T03:48:07.429Z,22.2
2019-06-26T03:53:12.669Z,22.4
2019-06-26T03:58:17.584Z,22.6
2019-06-26T04:03:22.578Z,22.8
2019-06-26T04:08:27.653Z,23
2019-06-26T04:13:32.672Z,23.2
2019-06-26T04:18:39.334Z,23.6
2019-06-26T04:23:44.741Z,24.1
2019-06-26T04:28:50.114Z,24.1
2019-06-26T04:33:55.265Z,24.4
2019-06-26T04:39:00.322Z,24.6
2019-06-26T04:44:06.283Z,24.8
2019-06-26T04:49:11.200Z,25
2019-06-26T04:54:16.960Z,25.3
2019-06-26T04:59:21.701Z,25.6
2019-06-26T05:04:25.148Z,26
2019-06-26T05:09:30.304Z,26.3
2019-06-26T05:14:35.369Z,26.4
2019-06-26T05:19:39.523Z,26.7
2019-06-26T05:24:48.290Z,26.8
2019-06-26T05:29:56.235Z,27
2019-06-26T05:35:01.228Z,27
2019-06-26T05:40:06.196Z,27.4
2019-06-26T05:45:11.726Z,27.8
2019-06-26T05:50:17.061Z,28.1
2019-06-26T05:55:21.969Z,28.5
2019-06-26T06:05:30.694Z,28.9
2019-06-26T06:10:35.582Z,29.3
2019-06-26T06:15:40.759Z,29.7
2019-06-26T06:20:45.721Z,29.9
2019-06-26T06:25:50.701Z,30.4
2019-06-26T06:30:55.462Z,30.8
2019-06-26T06:36:00.399Z,31.1
2019-06-26T06:41:05.468Z,31.4
2019-06-26T06:46:10.535Z,31.5
2019-06-26T06:51:15.502Z,31.3
2019-06-26T06:56:20.367Z,31.7
2019-06-26T07:01:25.441Z,32.2
2019-06-26T07:06:30.883Z,32.5
2019-06-26T07:11:36.233Z,32.9
2019-06-26T07:16:41.313Z,32.8
2019-06-26T07:21:46.157Z,33
2019-06-26T07:26:51.004Z,33.2
2019-06-26T07:31:55.766Z,33.4
2019-06-26T07:37:00.750Z,33.8
2019-06-26T07:42:06.269Z,33.6
2019-06-26T07:47:44.102Z,34
2019-06-26T07:52:19.306Z,34
2019-06-26T07:57:24.507Z,34.2
2019-06-26T08:02:30.104Z,34.6
2019-06-26T08:07:33.877Z,34.6
2019-06-26T08:12:38.912Z,34.8
2019-06-26T08:18:02.595Z,35.2
2019-06-26T08:22:47.420Z,35.2
2019-06-26T08:27:52.548Z,35.6
2019-06-26T08:32:57.679Z,35.5
2019-06-26T08:38:16.554Z,35.1
2019-06-26T08:43:11.470Z,35.1
2019-06-26T08:48:41.413Z,36
2019-06-26T08:53:16.572Z,36.1
2019-06-26T08:58:21.584Z,36.1
2019-06-26T09:03:26.328Z,35.9
2019-06-26T09:08:30.768Z,35.6
2019-06-26T09:13:36.821Z,35.3
2019-06-26T09:18:40.618Z,35.3
2019-06-26T09:23:46.023Z,35.8
2019-06-26T09:28:49.580Z,35.8
2019-06-26T09:33:54.412Z,36.7
2019-06-26T09:38:59.853Z,38.8
2019-06-26T09:44:05.047Z,39.7
2019-06-26T09:49:10.014Z,39.6
2019-06-26T09:54:14.777Z,40.2
2019-06-26T09:59:19.900Z,41.3
2019-06-26T10:04:24.904Z,42.1
2019-06-26T10:09:32.608Z,42.6
2019-06-26T10:14:49.411Z,40.7
2019-06-26T10:19:44.357Z,40.7
2019-06-26T10:24:49.270Z,40.9
2019-06-26T10:29:54.189Z,39.2
2019-06-26T10:34:59.212Z,38.3
2019-06-26T10:40:04.069Z,37.8
2019-06-26T10:45:09.668Z,38.7
2019-06-26T10:50:14.558Z,38.7
2019-06-26T10:55:19.434Z,37.8
2019-06-26T11:00:24.400Z,37.9
2019-06-26T11:05:29.218Z,39
2019-06-26T11:10:34.018Z,39.4
2019-06-26T11:15:38.890Z,39.2
2019-06-26T11:20:45.321Z,38.6
2019-06-26T11:25:50.300Z,38.4
2019-06-26T11:30:55.549Z,38.5
2019-06-26T11:36:00.480Z,37.5
2019-06-26T11:41:05.558Z,37.6
2019-06-26T11:46:10.641Z,37.8
2019-06-26T11:51:15.557Z,37.3
2019-06-26T12:01:24.426Z,37.4
2019-06-26T12:06:32.747Z,36.3
2019-06-26T12:11:37.762Z,36.3
2019-06-26T12:16:42.658Z,36.6
2019-06-26T12:21:50.318Z,37.3
2019-06-26T12:26:55.178Z,37.3
2019-06-26T12:32:00.390Z,37
2019-06-26T12:37:05.435Z,37.7
2019-06-26T12:42:10.409Z,38.2
2019-06-26T12:47:15.165Z,38.3
2019-06-26T12:52:20.164Z,38
2019-06-26T12:57:23.817Z,37.4
2019-06-26T13:02:28.780Z,37
2019-06-26T13:07:33.603Z,36.8
2019-06-26T13:12:39.011Z,36.8
2019-06-26T13:17:42.519Z,36.8
2019-06-26T13:22:47.786Z,36.5
2019-06-26T13:27:52.649Z,36.1
2019-06-26T13:32:57.648Z,35.5
2019-06-26T13:38:02.703Z,35.3
2019-06-26T13:43:11.496Z,36.1
2019-06-26T13:48:16.846Z,36
2019-06-26T13:53:21.065Z,36.4
2019-06-26T13:58:25.880Z,36.4
2019-06-26T14:03:30.768Z,36.5
2019-06-26T14:08:35.829Z,36.5
2019-06-26T14:13:43.655Z,36.4
2019-06-26T14:18:48.646Z,36.4
2019-06-26T14:23:52.199Z,36.4
2019-06-26T14:28:56.066Z,35.8
2019-06-26T14:34:01.098Z,35.8
2019-06-26T14:39:06.110Z,35.7
2019-06-26T14:44:11.213Z,35.8
2019-06-26T14:49:14.826Z,35.6
2019-06-26T14:54:19.684Z,35.6
2019-06-26T14:59:24.689Z,35.4
2019-06-26T15:04:28.997Z,35.2
2019-06-26T15:09:33.939Z,35.2
2019-06-26T15:14:41.254Z,35.2
2019-06-26T15:19:46.481Z,35.1
2019-06-26T15:24:52.130Z,35
2019-06-26T15:29:56.986Z,35
2019-06-26T15:35:02.719Z,34.9
2019-06-26T15:40:07.602Z,34.9
2019-06-26T15:45:12.626Z,34.8
2019-06-26T15:50:17.896Z,34.6
2019-06-26T15:55:22.969Z,34.5
2019-06-26T16:00:27.830Z,34.5
2019-06-26T16:05:32.793Z,34.5
2019-06-26T16:10:37.815Z,34.2
2019-06-26T16:15:42.819Z,34
2019-06-26T16:20:47.744Z,33.9
2019-06-26T16:25:53.219Z,33.9
2019-06-26T16:30:58.147Z,33.8
2019-06-26T16:36:03.116Z,33.6
2019-06-26T16:41:08.215Z,33.4
2019-06-26T16:46:13.222Z,33.4
2019-06-26T16:51:18.178Z,33.2
2019-06-26T16:56:23.081Z,33.1
2019-06-26T17:01:27.922Z,33
2019-06-26T17:06:32.837Z,32.9
2019-06-26T17:11:36.289Z,32.7
2019-06-26T17:16:41.612Z,32.6
2019-06-26T17:21:48.962Z,32.5
2019-06-26T17:26:54.528Z,32.3
2019-06-26T17:31:57.962Z,32.2
2019-06-26T17:37:03.478Z,31.9
2019-06-26T17:42:06.901Z,31.9
2019-06-26T17:47:11.843Z,31.8
2019-06-26T17:52:17.367Z,31.5
2019-06-26T17:57:22.660Z,31.5
2019-06-26T18:02:27.722Z,31.3
2019-06-26T18:07:33.202Z,31
2019-06-26T18:12:36.664Z,31
2019-06-26T18:17:41.979Z,30.9
2019-06-26T18:22:46.874Z,30.7
2019-06-26T18:27:51.997Z,30.4
2019-06-26T18:32:56.869Z,30.2
2019-06-26T18:38:03.699Z,30
2019-06-26T18:43:10.008Z,29.8
2019-06-26T18:48:15.071Z,29.6
2019-06-26T18:53:20.351Z,29.3
2019-06-26T18:58:25.938Z,29
2019-06-26T19:03:34.664Z,28.9
2019-06-26T19:08:40.558Z,28.7
2019-06-26T19:13:46.474Z,28.6
2019-06-26T19:18:52.486Z,28.5
2019-06-26T19:24:12.181Z,28.3
2019-06-26T19:28:58.140Z,28.3
2019-06-26T19:34:04.169Z,28.2
2019-06-26T19:39:10.539Z,28
2019-06-26T19:44:16.421Z,27.9
2019-06-26T19:49:24.353Z,27.8
2019-06-26T19:54:34.440Z,27.6
2019-06-26T19:59:30.273Z,27.6
2019-06-26T20:04:37.349Z,27.5
2019-06-26T20:09:44.502Z,27.5
2019-06-26T20:14:54.512Z,27.4
2019-06-26T20:19:52.187Z,27.3
2019-06-26T20:24:59.789Z,27.2
2019-06-26T20:30:11.016Z,27
2019-06-26T20:35:17.124Z,26.7
2019-06-26T20:40:23.538Z,26.6
2019-06-26T20:45:27.780Z,26.6
2019-06-26T20:50:33.167Z,26.6
2019-06-26T20:55:38.460Z,26.7
2019-06-26T21:00:44.468Z,26.7
2019-06-26T21:05:49.380Z,26.8
2019-06-26T21:10:55.379Z,26.7
2019-06-26T21:16:00.854Z,26.7
2019-06-26T21:21:06.042Z,26.7
2019-06-26T21:26:11.253Z,26.5
2019-06-26T21:31:16.321Z,26.4
2019-06-26T21:36:21.956Z,26.4
2019-06-26T21:41:27.253Z,26.1
2019-06-26T21:46:33.197Z,25.7
2019-06-26T21:51:38.124Z,25.7
2019-06-26T21:56:43.131Z,25.5
2019-06-26T22:01:48.508Z,25.3
2019-06-26T22:06:53.686Z,25.2
2019-06-26T22:12:02.511Z,25
2019-06-26T22:17:07.676Z,25
2019-06-26T22:22:12.837Z,24.9
2019-06-26T22:27:18.241Z,24.8
2019-06-26T22:32:23.625Z,24.7
2019-06-26T22:37:29.033Z,24.7
2019-06-26T22:42:34.909Z,24.6
2019-06-26T22:47:40.400Z,24.6
2019-06-26T22:52:46.247Z,24.6
2019-06-26T22:57:51.336Z,24.6
2019-06-26T23:02:56.356Z,24.5
2019-06-26T23:08:02.001Z,24.5
2019-06-26T23:13:11.457Z,24.4
2019-06-26T23:18:16.534Z,24.3
2019-06-26T23:23:22.064Z,24.3
2019-06-26T23:28:27.575Z,24.2
2019-06-26T23:33:32.822Z,24.2
2019-06-26T23:38:37.925Z,24.1
2019-06-26T23:43:43.004Z,24
2019-06-26T23:48:47.763Z,24
2019-06-26T23:53:53.340Z,23.9
2019-06-26T23:58:58.736Z,23.8
